createdAt,value
2022-09-01T00:00:18.435Z,88570.38
2022-09-01T00:03:03.195Z,88569.25
2022-09-01T00:05:48.173Z,88575.06
2022-09-01T00:08:32.846Z,88566.03
2022-09-01T00:11:17.847Z,88561.56
2022-09-01T00:14:02.597Z,88561.09
2022-09-01T00:16:47.490Z,88566.31
2022-09-01T00:19:36.705Z,88565.31
2022-09-01T00:22:21.381Z,88555.47
2022-09-01T00:25:06.295Z,88558.16
2022-09-01T00:27:50.967Z,88559.56
2022-09-01T00:30:35.800Z,88559.84
2022-09-01T00:33:20.484Z,88549.03
2022-09-01T00:36:05.437Z,88548.34
2022-09-01T00:38:50.179Z,88553.44
2022-09-01T00:41:35.951Z,88556.09
2022-09-01T00:44:20.977Z,88551.75
2022-09-01T00:47:05.851Z,88553.81
2022-09-01T00:49:50.682Z,88555.97
2022-09-01T00:52:35.396Z,88559.69
2022-09-01T00:55:20.257Z,88549.97
2022-09-01T00:58:05.117Z,88552.50
2022-09-01T01:00:49.854Z,88557.06
2022-09-01T01:03:34.589Z,88559.69
2022-09-01T01:06:19.457Z,88558.97
2022-09-01T01:09:04.274Z,88566.94
2022-09-01T01:11:49.009Z,88566.56
2022-09-01T01:14:34.012Z,88570.72
2022-09-01T01:17:18.879Z,88565.69
2022-09-01T01:20:03.658Z,88563.13
2022-09-01T01:22:48.425Z,88568.78
2022-09-01T01:25:33.351Z,88566.56
2022-09-01T01:28:18.232Z,88569.28
2022-09-01T01:31:03.291Z,88562.09
2022-09-01T01:33:48.410Z,88565.78
2022-09-01T01:36:33.222Z,88569.66
2022-09-01T01:39:18.075Z,88563.94
2022-09-01T01:42:02.779Z,88565.00
2022-09-01T01:44:47.684Z,88560.00
2022-09-01T01:47:32.443Z,88563.19
2022-09-01T01:50:17.290Z,88565.09
2022-09-01T01:53:02.012Z,88564.47
2022-09-01T01:55:46.957Z,88563.25
2022-09-01T01:58:31.792Z,88563.78
2022-09-01T02:01:16.711Z,88569.91
2022-09-01T02:04:02.121Z,88570.75
2022-09-01T02:06:46.882Z,88573.38
2022-09-01T02:09:31.707Z,88570.59
2022-09-01T02:12:16.571Z,88575.16
2022-09-01T02:15:01.369Z,88577.94
2022-09-01T02:17:46.263Z,88575.38
2022-09-01T02:20:31.090Z,88574.09
2022-09-01T02:23:15.862Z,88581.81
2022-09-01T02:26:15.605Z,88573.06
2022-09-01T02:29:01.050Z,88578.03
2022-09-01T02:31:45.863Z,88577.41
2022-09-01T02:34:30.744Z,88575.31
2022-09-01T02:37:15.577Z,88577.41
2022-09-01T02:40:00.558Z,88570.44
2022-09-01T02:42:45.332Z,88572.84
2022-09-01T02:45:30.269Z,88570.69
2022-09-01T02:48:15.489Z,88575.16
2022-09-01T02:51:03.899Z,88574.53
2022-09-01T02:53:48.927Z,88573.00
2022-09-01T02:56:33.747Z,88578.78
2022-09-01T02:59:18.662Z,88570.38
2022-09-01T03:02:03.331Z,88570.38
2022-09-01T03:04:48.138Z,88578.63
2022-09-01T03:07:33.477Z,88573.94
2022-09-01T03:10:18.190Z,88577.94
2022-09-01T03:13:03.062Z,88578.09
2022-09-01T03:15:47.964Z,88580.44
2022-09-01T03:18:32.851Z,88574.69
2022-09-01T03:21:17.569Z,88571.59
2022-09-01T03:24:02.427Z,88572.84
2022-09-01T03:26:49.762Z,88573.22
2022-09-01T03:29:36.823Z,88565.00
2022-09-01T03:32:21.879Z,88572.06
2022-09-01T03:35:06.799Z,88565.41
2022-09-01T03:37:51.608Z,88565.47
2022-09-01T03:40:36.437Z,88565.31
2022-09-01T03:43:21.737Z,88567.78
2022-09-01T03:46:06.531Z,88570.72
2022-09-01T03:48:51.827Z,88569.34
2022-09-01T03:51:36.967Z,88568.47
2022-09-01T03:54:21.773Z,88572.50
2022-09-01T03:57:06.702Z,88579.38
2022-09-01T03:59:51.395Z,88582.50
2022-09-01T04:02:40.444Z,88580.22
2022-09-01T04:05:25.693Z,88575.66
2022-09-01T04:08:10.527Z,88573.19
2022-09-01T04:10:55.437Z,88573.34
2022-09-01T04:13:40.231Z,88578.06
2022-09-01T04:16:25.105Z,88571.59
2022-09-01T04:19:10.377Z,88578.59
2022-09-01T04:21:55.120Z,88575.66
2022-09-01T04:24:43.253Z,88572.00
2022-09-01T04:27:30.178Z,88569.94
2022-09-01T04:30:15.143Z,88570.78
2022-09-01T04:32:59.864Z,88568.09
2022-09-01T04:35:44.764Z,88569.47
2022-09-01T04:38:29.740Z,88569.47
2022-09-01T04:41:14.606Z,88569.88
2022-09-01T04:43:59.588Z,88567.25
2022-09-01T04:46:44.321Z,88572.44
2022-09-01T04:49:29.179Z,88562.94
2022-09-01T04:52:14.476Z,88565.34
2022-09-01T04:54:59.164Z,88566.19
2022-09-01T04:57:44.106Z,88565.50
2022-09-01T05:00:28.958Z,88562.72
2022-09-01T05:03:13.793Z,88564.25
2022-09-01T05:05:58.435Z,88562.66
2022-09-01T05:08:43.462Z,88563.50
2022-09-01T05:11:31.167Z,88560.53
2022-09-01T05:14:15.958Z,88561.25
2022-09-01T05:17:00.871Z,88565.97
2022-09-01T05:19:45.826Z,88567.34
2022-09-01T05:22:30.653Z,88572.06
2022-09-01T05:25:15.516Z,88570.84
2022-09-01T05:28:00.804Z,88569.91
2022-09-01T05:30:45.467Z,88579.19
2022-09-01T05:33:30.155Z,88573.53
2022-09-01T05:36:14.754Z,88580.03
2022-09-01T05:38:59.621Z,88582.13
2022-09-01T05:41:44.408Z,88588.75
2022-09-01T05:44:29.247Z,88584.13
2022-09-01T05:47:14.776Z,88588.78
2022-09-01T05:50:06.031Z,88586.59
2022-09-01T05:52:50.977Z,88590.00
2022-09-01T05:55:35.823Z,88594.94
2022-09-01T05:58:20.561Z,88587.44
2022-09-01T06:01:05.892Z,88591.13
2022-09-01T06:03:50.599Z,88588.31
2022-09-01T06:06:48.969Z,88585.06
2022-09-01T06:09:40.645Z,88593.88
2022-09-01T06:12:25.528Z,88593.06
2022-09-01T06:15:10.269Z,88597.75
2022-09-01T06:17:54.854Z,88591.84
2022-09-01T06:20:39.570Z,88599.00
2022-09-01T06:23:24.425Z,88599.94
2022-09-01T06:26:09.229Z,88596.16
2022-09-01T06:28:54.211Z,88598.16
2022-09-01T06:31:39.056Z,88595.28
2022-09-01T06:34:23.879Z,88600.19
2022-09-01T06:37:08.676Z,88608.38
2022-09-01T06:39:53.381Z,88601.22
2022-09-01T06:42:38.174Z,88601.06
2022-09-01T06:45:22.857Z,88602.66
2022-09-01T06:48:07.647Z,88612.34
2022-09-01T06:53:57.495Z,88606.44
2022-09-01T06:56:44.987Z,88607.13
2022-09-01T06:59:36.435Z,88606.06
2022-09-01T07:08:31.270Z,88605.75
2022-09-01T07:11:19.790Z,88602.28
2022-09-01T07:14:21.329Z,88612.13
2022-09-01T07:20:27.128Z,88607.66
2022-09-01T07:23:12.209Z,88612.91
2022-09-01T07:26:04.492Z,88608.28
2022-09-01T07:28:49.512Z,88626.69
2022-09-01T07:31:50.161Z,88615.50
2022-09-01T07:34:38.830Z,88616.78
2022-09-01T07:42:59.167Z,88605.34
2022-09-01T07:43:33.799Z,88613.13
2022-09-01T07:49:50.114Z,88605.66
2022-09-01T07:52:28.765Z,88607.03
2022-09-01T07:55:14.411Z,88598.34
2022-09-01T07:57:58.997Z,88594.88
2022-09-01T08:00:44.763Z,88599.13
2022-09-01T08:03:29.632Z,88593.00
2022-09-01T08:06:14.334Z,88594.13
2022-09-01T08:08:59.211Z,88595.22
2022-09-01T08:12:01.722Z,88596.81
2022-09-01T08:14:46.898Z,88591.19
2022-09-01T08:17:34.611Z,88595.31
2022-09-01T08:20:35.696Z,88589.34
2022-09-01T08:23:20.552Z,88589.31
2022-09-01T08:26:05.241Z,88591.34
2022-09-01T08:28:54.925Z,88583.78
2022-09-01T08:31:40.334Z,88585.88
2022-09-01T08:34:25.138Z,88592.31
2022-09-01T08:37:09.927Z,88592.31
2022-09-01T08:39:54.749Z,88583.38
2022-09-01T08:42:39.465Z,88582.19
2022-09-01T08:45:24.184Z,88578.41
2022-09-01T08:48:57.217Z,88580.84
2022-09-01T08:51:17.184Z,88575.91
2022-09-01T08:54:05.073Z,88577.88
2022-09-01T08:56:49.918Z,88576.25
2022-09-01T08:59:34.576Z,88581.09
2022-09-01T09:02:19.407Z,88580.28
2022-09-01T09:05:15.402Z,88575.75
2022-09-01T09:08:08.133Z,88576.41
2022-09-01T09:10:53.213Z,88568.91
2022-09-01T09:13:37.990Z,88570.41
2022-09-01T09:16:22.858Z,88567.53
2022-09-01T09:19:07.961Z,88574.09
2022-09-01T09:21:52.686Z,88571.03
2022-09-01T09:24:39.401Z,88564.59
2022-09-01T09:27:25.288Z,88566.13
2022-09-01T09:30:11.886Z,88563.47
2022-09-01T09:36:01.549Z,88558.38
2022-09-01T09:38:46.487Z,88558.13
2022-09-01T09:41:31.263Z,88559.06
2022-09-01T09:44:16.061Z,88555.00
2022-09-01T09:47:00.774Z,88550.63
2022-09-01T09:49:48.880Z,88542.38
2022-09-01T09:52:34.205Z,88543.41
2022-09-01T09:55:18.789Z,88533.97
2022-09-01T09:58:03.421Z,88531.97
2022-09-01T10:00:48.162Z,88525.97
2022-09-01T10:03:32.866Z,88530.59
2022-09-01T10:06:17.482Z,88519.06
2022-09-01T10:09:02.745Z,88526.44
2022-09-01T10:11:47.849Z,88520.84
2022-09-01T10:14:49.842Z,88522.03
2022-09-01T10:17:37.515Z,88508.75
2022-09-01T10:20:25.484Z,88508.13
2022-09-01T10:23:14.948Z,88503.00
2022-09-01T10:26:00.391Z,88503.25
2022-09-01T10:28:49.893Z,88500.91
2022-09-01T10:31:35.535Z,88505.25
2022-09-01T10:34:20.248Z,88502.88
2022-09-01T10:37:11.238Z,88495.88
2022-09-01T10:39:56.482Z,88484.66
2022-09-01T10:42:45.260Z,88481.84
2022-09-01T10:45:30.351Z,88490.44
2022-09-01T10:48:17.890Z,88492.63
2022-09-01T10:51:02.831Z,88484.00
2022-09-01T10:53:47.606Z,88486.16
2022-09-01T10:56:36.637Z,88478.53
2022-09-01T10:59:41.750Z,88476.94
2022-09-01T11:02:28.713Z,88475.28
2022-09-01T11:05:19.510Z,88468.06
2022-09-01T11:08:14.916Z,88464.16
2022-09-01T11:11:00.100Z,88465.16
2022-09-01T11:13:49.174Z,88468.09
2022-09-01T11:16:50.161Z,88459.84
2022-09-01T11:19:35.599Z,88464.06
2022-09-01T11:22:20.279Z,88464.69
2022-09-01T11:25:11.785Z,88462.84
2022-09-01T11:27:57.627Z,88463.75
2022-09-01T11:30:42.925Z,88461.19
2022-09-01T11:33:28.148Z,88463.38
2022-09-01T11:36:13.143Z,88457.41
2022-09-01T11:38:57.947Z,88458.84
2022-09-01T11:41:43.006Z,88453.47
2022-09-01T11:44:27.820Z,88457.50
2022-09-01T11:47:14.595Z,88450.66
2022-09-01T11:49:59.820Z,88446.94
2022-09-01T11:52:44.549Z,88456.66
2022-09-01T11:55:29.295Z,88453.34
2022-09-01T11:58:17.789Z,88453.34
2022-09-01T12:01:03.010Z,88447.53
2022-09-01T12:03:47.800Z,88439.56
2022-09-01T12:06:33.044Z,88446.94
2022-09-01T12:09:17.821Z,88435.28
2022-09-01T12:12:02.605Z,88441.78
2022-09-01T12:15:04.886Z,88431.75
2022-09-01T12:17:50.575Z,88430.59
2022-09-01T12:20:35.386Z,88430.06
2022-09-01T12:23:20.570Z,88430.88
2022-09-01T12:26:05.664Z,88434.81
2022-09-01T12:28:50.339Z,88432.41
2022-09-01T12:31:35.137Z,88426.31
2022-09-01T12:34:19.874Z,88424.75
2022-09-01T12:37:04.601Z,88424.16
2022-09-01T12:39:49.394Z,88424.25
2022-09-01T12:42:41.254Z,88427.13
2022-09-01T12:45:27.892Z,88425.44
2022-09-01T12:48:12.617Z,88427.78
2022-09-01T12:50:57.425Z,88417.56
2022-09-01T12:53:42.583Z,88413.22
2022-09-01T12:56:27.593Z,88408.72
2022-09-01T12:59:15.686Z,88408.19
2022-09-01T13:02:02.923Z,88412.63
2022-09-01T13:04:48.125Z,88412.63
2022-09-01T13:07:32.860Z,88404.63
2022-09-01T13:10:17.713Z,88402.94
2022-09-01T13:13:02.425Z,88399.75
2022-09-01T13:15:47.330Z,88406.91
2022-09-01T13:18:32.154Z,88401.78
2022-09-01T13:21:16.780Z,88400.72
2022-09-01T13:24:01.637Z,88399.94
2022-09-01T13:27:20.304Z,88382.19
2022-09-01T13:29:51.750Z,88392.84
2022-09-01T13:32:36.637Z,88387.66
2022-09-01T13:35:22.277Z,88388.34
2022-09-01T13:38:07.136Z,88393.94
2022-09-01T13:40:51.944Z,88385.94
2022-09-01T13:43:37.146Z,88382.25
2022-09-01T13:46:25.526Z,88383.03
2022-09-01T13:52:15.076Z,88369.31
2022-09-01T13:54:59.797Z,88366.34
2022-09-01T13:57:44.461Z,88367.88
2022-09-01T14:00:29.112Z,88369.25
2022-09-01T14:03:15.001Z,88368.31
2022-09-01T14:05:59.791Z,88367.81
2022-09-01T14:08:44.568Z,88368.25
2022-09-01T14:11:29.307Z,88372.25
2022-09-01T14:14:14.254Z,88360.47
2022-09-01T14:16:59.013Z,88361.91
2022-09-01T14:19:43.956Z,88370.25
2022-09-01T14:22:28.532Z,88367.19
2022-09-01T14:25:13.264Z,88364.34
2022-09-01T14:27:58.380Z,88355.47
2022-09-01T14:30:43.235Z,88357.22
2022-09-01T14:33:27.931Z,88353.84
2022-09-01T14:36:15.071Z,88348.44
2022-09-01T14:38:59.987Z,88346.13
2022-09-01T14:41:44.809Z,88348.28
2022-09-01T14:44:29.655Z,88345.69
2022-09-01T14:47:18.211Z,88344.06
2022-09-01T14:50:04.614Z,88332.81
2022-09-01T14:52:49.383Z,88341.84
2022-09-01T14:55:34.068Z,88333.84
2022-09-01T14:58:19.001Z,88335.31
2022-09-01T15:01:23.495Z,88338.06
2022-09-01T15:04:08.522Z,88329.44
2022-09-01T15:06:53.301Z,88343.81
2022-09-01T15:09:38.022Z,88334.06
2022-09-01T15:12:22.738Z,88331.34
2022-09-01T15:15:07.497Z,88339.06
2022-09-01T15:17:52.244Z,88338.00
2022-09-01T15:20:36.870Z,88336.13
2022-09-01T15:23:21.704Z,88338.56
2022-09-01T15:26:06.296Z,88342.75
2022-09-01T15:28:50.976Z,88348.81
2022-09-01T15:31:35.569Z,88337.16
2022-09-01T15:34:20.405Z,88343.31
2022-09-01T15:37:05.135Z,88348.34
2022-09-01T15:39:49.909Z,88341.34
2022-09-01T15:42:35.038Z,88337.53
2022-09-01T15:45:19.813Z,88333.69
2022-09-01T15:48:04.622Z,88343.81
2022-09-01T15:50:49.303Z,88343.72
2022-09-01T15:53:34.034Z,88342.81
2022-09-01T15:56:18.657Z,88353.09
2022-09-01T15:59:03.367Z,88349.63
2022-09-01T16:01:48.144Z,88358.91
2022-09-01T16:04:32.805Z,88355.94
2022-09-01T16:07:17.680Z,88350.63
2022-09-01T16:10:02.336Z,88353.28
2022-09-01T16:12:47.276Z,88355.34
2022-09-01T16:15:32.072Z,88363.50
2022-09-01T16:18:17.010Z,88352.88
2022-09-01T16:21:02.072Z,88357.22
2022-09-01T16:23:46.888Z,88357.72
2022-09-01T16:26:31.618Z,88360.00
2022-09-01T16:29:16.368Z,88359.59
2022-09-01T16:32:01.130Z,88356.94
2022-09-01T16:34:45.926Z,88354.53
2022-09-01T16:37:30.766Z,88351.75
2022-09-01T16:40:15.558Z,88350.44
2022-09-01T16:43:00.274Z,88357.72
2022-09-01T16:45:45.055Z,88350.75
2022-09-01T16:48:30.309Z,88356.56
2022-09-01T16:51:14.987Z,88353.41
2022-09-01T16:53:59.781Z,88353.78
2022-09-01T16:56:44.616Z,88352.91
2022-09-01T16:59:29.393Z,88351.53
2022-09-01T17:02:14.379Z,88360.50
2022-09-01T17:04:59.579Z,88352.16
2022-09-01T17:07:44.422Z,88360.91
2022-09-01T17:10:29.043Z,88365.66
2022-09-01T17:13:14.390Z,88365.66
2022-09-01T17:15:59.104Z,88371.03
2022-09-01T17:18:43.795Z,88382.28
2022-09-01T17:21:28.593Z,88379.50
2022-09-01T17:24:13.446Z,88380.00
2022-09-01T17:26:58.239Z,88382.47
2022-09-01T17:29:43.014Z,88386.28
2022-09-01T17:32:28.242Z,88396.28
2022-09-01T17:35:15.991Z,88396.28
2022-09-01T17:38:00.790Z,88402.88
2022-09-01T17:40:45.671Z,88401.38
2022-09-01T17:43:30.800Z,88398.34
2022-09-01T17:46:15.662Z,88403.91
2022-09-01T17:49:00.764Z,88403.72
2022-09-01T17:51:45.581Z,88411.47
2022-09-01T17:54:30.366Z,88420.41
2022-09-01T17:57:15.077Z,88419.59
2022-09-01T17:59:59.699Z,88424.78
2022-09-01T18:02:44.574Z,88428.16
2022-09-01T18:05:29.396Z,88430.50
2022-09-01T18:08:14.573Z,88427.72
2022-09-01T18:10:59.427Z,88420.56
2022-09-01T18:13:59.714Z,88431.66
2022-09-01T18:16:44.895Z,88430.09
2022-09-01T18:19:29.510Z,88444.88
2022-09-01T18:22:14.394Z,88446.03
2022-09-01T18:24:59.047Z,88438.53
2022-09-01T18:27:44.433Z,88444.31
2022-09-01T18:30:51.680Z,88445.97
2022-09-01T18:33:34.003Z,88442.19
2022-09-01T18:36:18.754Z,88443.22
2022-09-01T18:39:03.510Z,88452.34
2022-09-01T18:41:48.137Z,88457.09
2022-09-01T18:44:32.835Z,88456.28
2022-09-01T18:47:17.553Z,88461.25
2022-09-01T18:50:02.287Z,88466.78
2022-09-01T18:52:47.072Z,88470.81
2022-09-01T18:55:32.003Z,88469.78
2022-09-01T18:58:16.721Z,88466.91
2022-09-01T19:01:01.473Z,88469.66
2022-09-01T19:03:46.185Z,88473.34
2022-09-01T19:06:31.077Z,88482.91
2022-09-01T19:09:15.906Z,88486.13
2022-09-01T19:12:00.779Z,88487.72
2022-09-01T19:14:45.528Z,88484.84
2022-09-01T19:17:30.207Z,88483.66
2022-09-01T19:20:15.078Z,88486.09
2022-09-01T19:22:59.786Z,88490.31
2022-09-01T19:25:44.637Z,88494.38
2022-09-01T19:28:29.318Z,88482.03
2022-09-01T19:31:14.317Z,88484.88
2022-09-01T19:33:58.861Z,88483.00
2022-09-01T19:36:43.681Z,88487.34
2022-09-01T19:39:28.477Z,88489.44
2022-09-01T19:42:13.438Z,88484.94
2022-09-01T19:44:58.138Z,88493.22
2022-09-01T19:47:43.878Z,88488.84
2022-09-01T19:50:28.724Z,88490.88
2022-09-01T19:53:13.522Z,88494.06
2022-09-01T19:55:58.286Z,88490.06
2022-09-01T19:58:43.022Z,88495.09
2022-09-01T20:01:27.995Z,88491.63
2022-09-01T20:04:12.636Z,88499.31
2022-09-01T20:06:57.449Z,88496.31
2022-09-01T20:09:42.158Z,88502.03
2022-09-01T20:12:26.953Z,88508.66
2022-09-01T20:15:11.868Z,88503.22
2022-09-01T20:17:56.952Z,88495.84
2022-09-01T20:20:41.757Z,88502.59
2022-09-01T20:23:26.512Z,88504.56
2022-09-01T20:26:11.323Z,88499.56
2022-09-01T20:28:56.740Z,88500.44
2022-09-01T20:31:42.050Z,88502.69
2022-09-01T20:34:26.823Z,88506.59
2022-09-01T20:37:11.647Z,88504.91
2022-09-01T20:39:56.267Z,88517.03
2022-09-01T20:42:41.027Z,88505.50
2022-09-01T20:45:25.953Z,88511.69
2022-09-01T20:48:10.605Z,88508.91
2022-09-01T20:50:55.462Z,88513.66
2022-09-01T20:53:40.054Z,88514.53
2022-09-01T20:56:24.868Z,88527.78
2022-09-01T20:59:09.647Z,88520.84
2022-09-01T21:01:54.410Z,88521.56
2022-09-01T21:04:39.002Z,88531.84
2022-09-01T21:07:26.087Z,88527.97
2022-09-01T21:10:14.853Z,88520.56
2022-09-01T21:13:00.135Z,88523.06
2022-09-01T21:15:45.006Z,88525.59
2022-09-01T21:18:29.835Z,88528.41
2022-09-01T21:21:14.608Z,88525.06
2022-09-01T21:23:59.418Z,88524.09
2022-09-01T21:26:44.159Z,88526.47
2022-09-01T21:29:28.958Z,88522.06
2022-09-01T21:32:13.612Z,88524.38
2022-09-01T21:34:58.355Z,88523.16
2022-09-01T21:37:43.262Z,88530.34
2022-09-01T21:40:28.078Z,88529.25
2022-09-01T21:43:12.848Z,88528.81
2022-09-01T21:45:57.691Z,88524.38
2022-09-01T21:48:42.969Z,88515.59
2022-09-01T21:51:27.633Z,88525.06
2022-09-01T21:54:12.429Z,88524.53
2022-09-01T21:56:57.073Z,88527.31
2022-09-01T21:59:41.835Z,88528.72
2022-09-01T22:02:28.464Z,88515.81
2022-09-01T22:05:13.891Z,88519.94
2022-09-01T22:07:58.709Z,88515.94
2022-09-01T22:10:43.408Z,88522.22
2022-09-01T22:13:28.266Z,88522.50
2022-09-01T22:16:13.224Z,88518.75
2022-09-01T22:19:01.460Z,88517.06
2022-09-01T22:21:46.391Z,88521.53
2022-09-01T22:24:30.941Z,88516.53
2022-09-01T22:27:15.804Z,88523.59
2022-09-01T22:30:00.518Z,88525.13
2022-09-01T22:32:45.381Z,88528.47
2022-09-01T22:35:30.582Z,88527.25
2022-09-01T22:38:15.439Z,88532.09
2022-09-01T22:41:00.037Z,88520.72
2022-09-01T22:43:44.905Z,88519.19
2022-09-01T22:46:29.591Z,88522.91
2022-09-01T22:49:14.340Z,88527.91
2022-09-01T22:51:59.258Z,88524.88
2022-09-01T22:54:45.062Z,88528.19
2022-09-01T22:57:29.877Z,88527.38
2022-09-01T23:00:14.565Z,88528.91
2022-09-01T23:02:59.335Z,88537.50
2022-09-01T23:05:44.114Z,88533.88
2022-09-01T23:08:28.938Z,88533.34
2022-09-01T23:11:13.657Z,88531.53
2022-09-01T23:13:58.492Z,88532.78
2022-09-01T23:16:43.223Z,88534.03
2022-09-01T23:19:28.442Z,88537.94
2022-09-01T23:22:13.258Z,88533.19
2022-09-01T23:24:57.921Z,88537.09
2022-09-01T23:27:42.694Z,88532.94
2022-09-01T23:30:27.489Z,88532.34
2022-09-01T23:33:12.205Z,88535.41
2022-09-01T23:35:56.947Z,88539.16
2022-09-01T23:38:41.713Z,88534.44
2022-09-01T23:41:26.547Z,88548.31
2022-09-01T23:44:11.380Z,88541.06
2022-09-01T23:46:56.157Z,88537.72
2022-09-01T23:49:40.964Z,88535.19
2022-09-01T23:52:25.874Z,88533.13
2022-09-01T23:55:10.601Z,88533.94
2022-09-01T23:57:55.378Z,88535.88
